Time;durP1;ratioP1;P1;durP2;ratioP2;P2;SDS_P1;SDS_P2;PMS_P1;PMS_P2;Temp;Humidity;BMP_temperature;BMP_pressure;BME280_temperature;BME280_humidity;BME280_pressure;Samples;Min_cycle;Max_cycle;Signal;HPM_P1;HPM_P2
2023/04/29 00:00:08;;;;;;;2.63;1.92;;;;;;;6.31;72.11;99602.34;5094855;28;20035;-61
2023/04/29 00:02:34;;;;;;;3.92;2.10;;;;;;;6.13;71.96;99566.34;5077644;28;20032;-59
2023/04/29 00:05:00;;;;;;;2.97;2.10;;;;;;;6.26;71.78;99599.16;5094728;28;20116;-60
2023/04/29 00:07:25;;;;;;;2.42;2.20;;;;;;;6.20;71.97;99601.34;5094827;28;20540;-60
2023/04/29 00:09:51;;;;;;;2.00;1.80;;;;;;;6.12;71.62;99588.56;5077019;28;20460;-62
2023/04/29 00:12:17;;;;;;;2.53;2.13;;;;;;;6.08;71.76;99600.34;5094496;28;20039;-60
2023/04/29 00:14:42;;;;;;;3.60;2.50;;;;;;;6.01;72.90;99595.47;5094695;28;20347;-61
2023/04/29 00:17:08;;;;;;;3.83;2.13;;;;;;;6.06;72.91;99597.81;5094902;28;20066;-61
2023/04/29 00:19:34;;;;;;;2.72;2.25;;;;;;;6.10;72.92;99599.31;5094594;28;20032;-61
2023/04/29 00:22:00;;;;;;;2.60;2.40;;;;;;;6.13;72.53;99603.56;5094246;28;20043;-61
2023/04/29 00:24:26;;;;;;;3.13;2.28;;;;;;;5.77;72.83;99527.94;5094663;28;20028;-61
2023/04/29 00:26:51;;;;;;;2.33;2.00;;;;;;;6.16;72.98;99588.28;5094504;28;20040;-61
2023/04/29 00:29:17;;;;;;;2.50;2.13;;;;;;;6.17;72.63;99591.81;5076428;28;20112;-60
2023/04/29 00:31:44;;;;;;;2.25;2.05;;;;;;;6.12;72.36;99576.16;5094621;28;20107;-60
2023/04/29 00:34:09;;;;;;;2.20;1.90;;;;;;;6.13;72.39;99580.50;5094381;28;20028;-61
2023/04/29 00:36:35;;;;;;;4.28;1.98;;;;;;;6.05;72.67;99564.22;5093991;28;20028;-61
2023/04/29 00:39:02;;;;;;;3.05;2.15;;;;;;;6.07;72.64;99564.97;5094022;28;20043;-62
2023/04/29 00:41:29;;;;;;;2.00;1.80;;;;;;;6.05;72.40;99574.00;5076105;28;20477;-61
2023/04/29 00:43:55;;;;;;;2.17;1.48;;;;;;;6.00;72.89;99577.78;5094300;28;20139;-59
2023/04/29 00:46:20;;;;;;;1.92;1.40;;;;;;;5.97;72.21;99582.44;5094293;28;20032;-61
2023/04/29 00:48:46;;;;;;;3.08;1.40;;;;;;;5.92;72.46;99580.09;5093983;28;20032;-60
2023/04/29 00:51:12;;;;;;;2.00;1.70;;;;;;;5.88;72.67;99567.94;5059633;28;20135;-61
2023/04/29 00:53:38;;;;;;;3.00;1.63;;;;;;;5.87;72.92;99559.13;5093588;28;20047;-61
2023/04/29 00:56:06;;;;;;;1.60;1.50;;;;;;;5.92;72.58;99569.47;5093830;28;20023;-61
2023/04/29 00:58:34;;;;;;;1.63;1.25;;;;;;;5.92;73.02;99569.47;5093752;28;20032;-61
2023/04/29 01:01:00;;;;;;;1.63;1.40;;;;;;;5.94;72.74;99567.56;5094156;28;20033;-61
2023/04/29 01:03:28;;;;;;;2.22;1.20;;;;;;;5.92;72.83;99563.28;5093747;28;20030;-60
2023/04/29 01:06:06;;;;;;;1.20;1.10;;;;;;;5.79;72.32;99539.31;5093888;28;20047;-61
2023/04/29 01:09:09;;;;;;;1.35;1.13;;;;;;;6.00;72.58;99559.16;5093635;28;20020;-61
2023/04/29 01:11:49;;;;;;;1.75;1.05;;;;;;;5.98;72.33;99573.50;5093708;28;20393;-60
2023/04/29 01:14:14;;;;;;;1.20;1.10;;;;;;;5.92;72.55;99564.16;5093484;28;20442;-60
2023/04/29 01:16:46;;;;;;;2.55;1.20;;;;;;;5.94;72.27;99566.69;5093376;28;20039;-60
2023/04/29 01:19:27;;;;;;;2.72;1.10;;;;;;;5.97;72.50;99564.69;5093408;28;20393;-60
2023/04/29 01:21:53;;;;;;;1.48;1.38;;;;;;;5.92;72.22;99560.63;5093870;28;20024;-62
2023/04/29 01:24:18;;;;;;;1.27;1.17;;;;;;;5.92;72.55;99564.16;5093458;28;20039;-62
2023/04/29 01:26:53;;;;;;;2.03;1.40;;;;;;;5.98;72.43;99578.81;5093377;28;20064;-59
2023/04/29 01:29:26;;;;;;;1.90;1.27;;;;;;;6.02;72.66;99572.38;5093422;28;20115;-61
2023/04/29 01:32:02;;;;;;;2.55;1.40;;;;;;;5.98;72.01;99571.72;5093242;28;20039;-60
2023/04/29 01:34:43;;;;;;;0.93;0.90;;;;;;;6.06;72.04;99575.69;5075564;28;20096;-60
2023/04/29 01:37:27;;;;;;;2.17;1.30;;;;;;;5.98;72.51;99565.53;5093230;28;20040;-61
2023/04/29 01:40:17;;;;;;;4.00;1.48;;;;;;;6.08;72.63;99571.13;5093040;28;20035;-60
2023/04/29 01:42:52;;;;;;;2.38;1.48;;;;;;;5.94;72.86;99556.06;5093008;28;20040;-61
2023/04/29 01:45:20;;;;;;;1.88;1.60;;;;;;;6.01;73.01;99557.38;5092915;28;20044;-62
2023/04/29 01:47:47;;;;;;;2.72;1.80;;;;;;;5.97;72.82;99563.81;5092708;28;20040;-63
2023/04/29 01:50:13;;;;;;;2.80;1.50;;;;;;;5.98;72.79;99561.06;5092836;28;20120;-61
2023/04/29 01:52:38;;;;;;;2.60;1.70;;;;;;;5.80;72.76;99528.59;5092492;28;20063;-60
2023/04/29 01:55:05;;;;;;;3.25;1.88;;;;;;;5.91;72.55;99553.59;5092631;28;20047;-61
2023/04/29 01:57:30;;;;;;;3.35;1.80;;;;;;;5.91;72.96;99561.56;5092927;28;20112;-60
2023/04/29 01:59:56;;;;;;;1.98;1.75;;;;;;;5.86;72.79;99560.06;5092801;28;20056;-61
2023/04/29 02:02:22;;;;;;;2.05;1.85;;;;;;;5.87;73.35;99572.41;5092875;28;20031;-60
2023/04/29 02:04:49;;;;;;;2.00;1.80;;;;;;;5.88;73.02;99571.47;5092016;28;20344;-60
2023/04/29 02:07:15;;;;;;;1.80;1.70;;;;;;;5.85;73.01;99568.13;5092439;28;20032;-61
2023/04/29 02:09:41;;;;;;;2.13;1.58;;;;;;;5.91;72.90;99574.88;5092626;28;20032;-62
2023/04/29 02:12:07;;;;;;;1.88;1.77;;;;;;;5.87;73.46;99580.38;5092663;28;20379;-60
2023/04/29 02:14:33;;;;;;;3.60;2.00;;;;;;;5.73;73.10;99559.16;5092409;28;20504;-62
2023/04/29 02:17:00;;;;;;;1.92;1.83;;;;;;;5.86;73.58;99581.34;5092771;28;20093;-60
2023/04/29 02:19:25;;;;;;;2.00;1.80;;;;;;;5.93;72.64;99583.59;5092972;28;20036;-60
2023/04/29 02:21:51;;;;;;;2.00;1.75;;;;;;;5.88;72.96;99578.56;5092579;28;20438;-60
2023/04/29 02:24:17;;;;;;;2.70;1.40;;;;;;;5.49;72.29;99546.50;5092556;28;20062;-61
2023/04/29 02:26:43;;;;;;;1.55;1.45;;;;;;;5.58;72.78;99580.47;5092735;28;20059;-62
2023/04/29 02:29:08;;;;;;;3.83;1.20;;;;;;;5.56;72.60;99584.16;5093005;28;20040;-64
2023/04/29 02:31:34;;;;;;;1.77;1.10;;;;;;;5.44;73.36;99570.72;5092481;28;20034;-62
2023/04/29 02:33:59;;;;;;;1.30;1.20;;;;;;;5.52;72.65;99588.78;5092643;28;20032;-61
2023/04/29 02:36:25;;;;;;;1.10;1.00;;;;;;;5.55;72.71;99593.06;5074925;28;20036;-60
2023/04/29 02:38:54;;;;;;;1.15;1.02;;;;;;;5.40;73.65;99563.88;5092380;28;20097;-61
2023/04/29 02:41:19;;;;;;;1.40;1.10;;;;;;;5.57;73.04;99592.03;5092313;28;20554;-62
2023/04/29 02:43:45;;;;;;;1.40;1.00;;;;;;;5.50;72.83;99585.38;5092261;28;20139;-61
2023/04/29 02:46:11;;;;;;;4.03;1.10;;;;;;;5.55;73.58;99598.38;5092585;28;20036;-60
2023/04/29 02:48:36;;;;;;;1.83;1.13;;;;;;;5.57;73.31;99607.09;5092560;28;20055;-61
2023/04/29 02:51:02;;;;;;;3.08;1.05;;;;;;;5.44;72.72;99593.75;5092243;28;20020;-60
2023/04/29 02:53:28;;;;;;;1.30;1.20;;;;;;;5.55;72.96;99616.97;5092561;28;20354;-59
2023/04/29 02:55:54;;;;;;;2.38;1.08;;;;;;;5.55;73.48;99609.88;5092616;28;20024;-61
2023/04/29 02:58:20;;;;;;;1.75;1.25;;;;;;;5.63;73.48;99619.16;5092145;28;20109;-61
2023/04/29 03:00:45;;;;;;;4.97;1.40;;;;;;;5.57;72.42;99631.88;5092138;28;20355;-62
2023/04/29 03:03:11;;;;;;;1.30;1.20;;;;;;;5.52;73.23;99631.28;5092054;28;20039;-61
2023/04/29 03:05:36;;;;;;;3.40;1.40;;;;;;;5.43;73.03;99631.88;5092373;28;20036;-61
2023/04/29 03:08:03;;;;;;;1.30;1.20;;;;;;;5.45;73.32;99637.94;5092682;28;20044;-60
2023/04/29 03:10:29;;;;;;;1.15;1.05;;;;;;;5.43;72.75;99645.16;5092364;28;20043;-59
2023/04/29 03:12:55;;;;;;;2.03;1.80;;;;;;;5.44;73.72;99646.84;5092000;28;20036;-62
2023/04/29 03:15:20;;;;;;;1.38;1.27;;;;;;;5.32;72.92;99646.69;5093543;28;20032;-62
2023/04/29 03:17:46;;;;;;;3.40;1.33;;;;;;;5.44;73.64;99668.09;5095971;28;20028;-61
2023/04/29 03:20:11;;;;;;;0.90;0.90;;;;;;;5.41;73.10;99668.28;5095843;28;20024;-60
2023/04/29 03:22:37;;;;;;;1.55;1.45;;;;;;;5.40;73.39;99674.56;5095780;28;20502;-61
2023/04/29 03:25:03;;;;;;;1.08;0.98;;;;;;;5.38;73.26;99677.28;5096085;28;20435;-62
2023/04/29 03:27:30;;;;;;;1.67;1.38;;;;;;;5.32;73.06;99688.28;5096144;28;20081;-60
2023/04/29 03:29:56;;;;;;;2.25;1.27;;;;;;;5.31;73.78;99687.44;5095587;28;20350;-61
2023/04/29 03:32:21;;;;;;;1.52;1.42;;;;;;;5.30;74.04;99691.06;5095552;28;20036;-60
2023/04/29 03:34:48;;;;;;;3.13;1.70;;;;;;;5.30;73.68;99690.19;5095300;28;20120;-60
2023/04/29 03:37:15;;;;;;;1.70;1.48;;;;;;;5.22;73.59;99692.47;5095427;28;20039;-59
2023/04/29 03:39:41;;;;;;;1.40;1.30;;;;;;;4.98;73.56;99666.47;5095284;28;20392;-62
2023/04/29 03:42:07;;;;;;;1.55;1.20;;;;;;;5.10;73.59;99716.13;5095187;28;20060;-60
2023/04/29 03:44:32;;;;;;;2.20;0.93;;;;;;;5.08;73.74;99709.22;5095727;28;20477;-58
2023/04/29 03:46:58;;;;;;;1.08;0.90;;;;;;;5.00;73.40;99712.31;5095028;28;20035;-60
2023/04/29 03:49:24;;;;;;;1.70;1.20;;;;;;;4.86;73.98;99691.91;5095146;28;20103;-59
2023/04/29 03:51:50;;;;;;;3.17;1.30;;;;;;;5.06;74.11;99717.25;5095422;28;20445;-60
2023/04/29 03:54:16;;;;;;;1.75;1.65;;;;;;;5.11;73.95;99715.19;5095069;28;20035;-61
2023/04/29 03:56:42;;;;;;;3.13;1.73;;;;;;;5.14;73.66;99722.13;5077104;28;20020;-60
2023/04/29 03:59:08;;;;;;;2.00;1.60;;;;;;;5.08;73.76;99707.41;5095200;28;20427;-61
2023/04/29 04:01:33;;;;;;;1.92;1.70;;;;;;;5.14;73.94;99722.13;5095114;28;20024;-62
2023/04/29 04:03:59;;;;;;;2.42;1.33;;;;;;;4.98;73.79;99691.19;5095003;28;20340;-61
2023/04/29 04:06:25;;;;;;;1.50;1.30;;;;;;;5.17;73.94;99717.47;5095114;28;20123;-62
2023/04/29 04:08:50;;;;;;;1.42;1.30;;;;;;;5.19;73.19;99722.69;5094812;28;20418;-61
2023/04/29 04:11:16;;;;;;;1.65;1.55;;;;;;;5.18;73.46;99720.97;5076978;28;20035;-62
2023/04/29 04:13:42;;;;;;;2.00;1.80;;;;;;;5.17;73.50;99709.50;5094834;28;20032;-61
2023/04/29 04:16:09;;;;;;;1.60;1.50;;;;;;;4.97;73.99;99688.63;5094677;28;20032;-62
2023/04/29 04:18:38;;;;;;;1.73;1.48;;;;;;;5.12;74.09;99710.75;5094712;28;20466;-62
2023/04/29 04:21:08;;;;;;;2.58;1.58;;;;;;;4.88;73.89;99666.16;5095122;28;20024;-60
2023/04/29 04:23:34;;;;;;;4.07;1.90;;;;;;;5.26;73.91;99710.75;5095084;28;20036;-61
2023/04/29 04:26:00;;;;;;;3.17;1.70;;;;;;;5.27;73.45;99707.16;5094531;28;20144;-60
2023/04/29 04:28:25;;;;;;;3.80;1.65;;;;;;;5.28;74.25;99700.03;5093811;28;20028;-61
2023/04/29 04:30:51;;;;;;;4.10;1.80;;;;;;;5.36;73.75;99712.84;5094378;28;20028;-60
2023/04/29 04:33:17;;;;;;;1.83;1.70;;;;;;;5.40;73.59;99715.22;5094665;28;20107;-61
2023/04/29 04:35:43;;;;;;;3.35;1.80;;;;;;;5.37;73.47;99695.97;5094438;28;20402;-61
2023/04/29 04:38:10;;;;;;;4.32;1.52;;;;;;;5.39;73.08;99684.31;5094024;28;20454;-60
2023/04/29 04:40:36;;;;;;;1.90;1.45;;;;;;;5.67;72.99;99724.25;5094453;28;20371;-60
2023/04/29 04:43:02;;;;;;;3.78;1.45;;;;;;;5.75;72.85;99722.81;5094394;28;20036;-62
2023/04/29 04:45:29;;;;;;;1.70;1.60;;;;;;;5.81;71.80;99708.31;5076383;28;20035;-60
2023/04/29 04:47:54;;;;;;;1.70;1.58;;;;;;;5.89;71.98;99700.69;5094397;28;20032;-59
2023/04/29 04:50:20;;;;;;;2.50;1.80;;;;;;;5.98;72.27;99699.28;5094307;28;20024;-61
2023/04/29 04:52:45;;;;;;;1.58;1.48;;;;;;;6.18;72.10;99703.34;5094301;28;20032;-61
2023/04/29 04:55:11;;;;;;;2.40;1.73;;;;;;;6.32;70.95;99706.91;5094161;28;20028;-62
2023/04/29 04:57:37;;;;;;;2.25;1.85;;;;;;;6.39;70.31;99715.31;5094153;28;20024;-62
2023/04/29 05:00:03;;;;;;;1.83;1.60;;;;;;;6.45;70.12;99723.75;5093878;28;20101;-61
2023/04/29 05:02:34;;;;;;;1.98;1.80;;;;;;;6.49;70.06;99720.91;5094205;28;20024;-62
2023/04/29 05:04:59;;;;;;;2.92;1.90;;;;;;;6.45;70.02;99723.75;5093995;28;20028;-61
2023/04/29 05:07:25;;;;;;;2.40;1.60;;;;;;;6.37;69.40;99725.22;5093456;28;20044;-61
2023/04/29 05:09:50;;;;;;;2.78;1.60;;;;;;;6.33;69.29;99711.28;5093775;28;20442;-61
2023/04/29 05:12:16;;;;;;;1.77;1.52;;;;;;;6.37;69.76;99717.22;5093909;28;20035;-60
2023/04/29 05:14:41;;;;;;;2.97;1.50;;;;;;;6.43;69.95;99723.00;5093580;28;20039;-61
2023/04/29 05:17:08;;;;;;;3.80;1.90;;;;;;;6.50;69.08;99725.25;5059141;28;20426;-60
2023/04/29 05:19:34;;;;;;;2.20;2.00;;;;;;;6.52;69.01;99720.72;5093640;28;20028;-60
2023/04/29 05:22:00;;;;;;;2.45;1.90;;;;;;;6.52;69.11;99718.06;5093545;28;20028;-60
2023/04/29 05:24:25;;;;;;;3.08;1.75;;;;;;;6.49;68.93;99720.91;5075471;28;20177;-61
2023/04/29 05:26:52;;;;;;;3.58;2.42;;;;;;;6.51;68.50;99721.66;5075452;28;20115;-61
2023/04/29 05:29:18;;;;;;;2.85;1.90;;;;;;;6.51;68.75;99727.84;5093199;28;20043;-61
2023/04/29 05:31:44;;;;;;;4.07;1.95;;;;;;;6.53;68.61;99728.59;5075363;28;20020;-60
2023/04/29 05:34:10;;;;;;;2.30;2.00;;;;;;;6.60;68.52;99734.38;5093566;28;20047;-59
2023/04/29 05:36:35;;;;;;;4.07;2.60;;;;;;;6.72;67.91;99716.75;5093077;28;20035;-60
2023/04/29 05:39:01;;;;;;;3.65;2.30;;;;;;;6.80;67.28;99732.22;5074230;28;20028;-60
2023/04/29 05:41:26;;;;;;;3.38;2.50;;;;;;;6.80;67.67;99732.22;5093007;28;20052;-60
2023/04/29 05:43:52;;;;;;;4.93;2.42;;;;;;;6.79;66.99;99734.00;5092824;28;20044;-61
2023/04/29 05:46:19;;;;;;;3.78;2.60;;;;;;;6.88;66.81;99738.72;5075452;28;20036;-60
2023/04/29 05:48:45;;;;;;;3.42;2.70;;;;;;;7.08;66.63;99748.97;5092980;28;20186;-62
2023/04/29 05:51:12;;;;;;;3.35;2.72;;;;;;;7.28;65.84;99745.81;5093092;28;20419;-60
2023/04/29 05:53:39;;;;;;;4.20;2.50;;;;;;;7.52;66.35;99745.09;5093350;28;20111;-62
2023/04/29 05:56:07;;;;;;;3.33;2.33;;;;;;;7.85;65.43;99741.03;5075161;28;20024;-60
2023/04/29 05:58:34;;;;;;;3.75;2.72;;;;;;;8.08;64.10;99756.31;5092635;28;20142;-61
2023/04/29 06:01:00;;;;;;;4.57;2.83;;;;;;;8.19;63.23;99751.09;5092963;28;20050;-61
2023/04/29 06:03:26;;;;;;;4.40;2.75;;;;;;;8.26;63.31;99759.50;5092755;28;20035;-61
2023/04/29 06:05:52;;;;;;;4.10;2.67;;;;;;;8.27;62.15;99761.22;5092479;28;20115;-62
2023/04/29 06:08:18;;;;;;;3.95;2.90;;;;;;;8.20;62.67;99752.78;5092923;28;20036;-62
2023/04/29 06:10:45;;;;;;;4.30;3.08;;;;;;;8.30;63.00;99763.66;5092654;28;20032;-60
2023/04/29 06:13:10;;;;;;;3.00;2.58;;;;;;;8.35;61.94;99771.34;5093033;28;20032;-61
2023/04/29 06:15:36;;;;;;;3.75;2.45;;;;;;;8.12;61.50;99741.84;5075100;28;20112;-60
2023/04/29 06:18:02;;;;;;;3.17;2.58;;;;;;;8.47;61.83;99776.63;5092872;28;20063;-61
2023/04/29 06:20:27;;;;;;;4.13;2.83;;;;;;;8.64;61.00;99771.06;5092516;28;20801;-62
2023/04/29 06:22:53;;;;;;;3.55;2.38;;;;;;;8.52;60.49;99749.63;5092629;28;20028;-61
2023/04/29 06:25:18;;;;;;;3.33;2.53;;;;;;;8.81;60.59;99783.16;5092545;28;20078;-62
2023/04/29 06:27:44;;;;;;;3.40;2.70;;;;;;;8.89;60.23;99792.31;5092649;28;20358;-62
2023/04/29 06:30:10;;;;;;;5.53;2.78;;;;;;;8.81;60.11;99784.03;5092934;28;20036;-61
2023/04/29 06:32:38;;;;;;;4.43;2.70;;;;;;;8.99;60.26;99792.47;5092519;28;20466;-61
2023/04/29 06:35:03;;;;;;;3.42;2.78;;;;;;;8.95;60.24;99790.13;5092518;28;20070;-62
2023/04/29 06:37:29;;;;;;;5.07;3.05;;;;;;;9.13;60.59;99785.22;5092716;28;20047;-60
2023/04/29 06:39:55;;;;;;;4.95;3.08;;;;;;;9.44;59.54;99796.28;5092273;28;20028;-62
2023/04/29 06:42:20;;;;;;;3.80;2.83;;;;;;;9.73;58.10;99785.97;5092257;28;20075;-61
2023/04/29 06:44:46;;;;;;;4.30;2.70;;;;;;;10.19;57.40;99791.34;5092494;28;20581;-62
2023/04/29 06:47:12;;;;;;;5.97;2.90;;;;;;;10.79;55.78;99792.88;5092981;28;20035;-62
2023/04/29 06:49:37;;;;;;;3.95;2.60;;;;;;;11.46;53.45;99796.25;5092760;28;20088;-61
2023/04/29 06:52:03;;;;;;;3.70;2.55;;;;;;;12.12;49.88;99803.16;5078534;28;20032;-61
2023/04/29 06:54:29;;;;;;;2.60;2.30;;;;;;;13.09;47.75;99794.63;5096194;28;20119;-63
2023/04/29 06:56:54;;;;;;;3.00;2.17;;;;;;;13.97;44.25;99786.44;5096394;28;20066;-61
2023/04/29 06:59:20;;;;;;;3.63;2.25;;;;;;;14.11;43.69;99789.69;5096217;28;20028;-61
2023/04/29 07:01:46;;;;;;;2.92;2.15;;;;;;;14.03;43.67;99798.47;5096408;28;20039;-61
2023/04/29 07:04:11;;;;;;;2.83;2.35;;;;;;;13.78;44.08;99790.06;5078557;28;20039;-62
2023/04/29 07:06:37;;;;;;;5.65;2.53;;;;;;;13.71;43.95;99802.38;5096402;28;20035;-62
2023/04/29 07:09:03;;;;;;;3.30;2.10;;;;;;;13.62;43.72;99796.88;5096236;28;20040;-62
2023/04/29 07:11:29;;;;;;;3.17;2.30;;;;;;;13.66;43.75;99810.03;5095860;28;20063;-63
2023/04/29 07:13:54;;;;;;;2.60;2.40;;;;;;;13.80;44.03;99806.91;5078022;28;20023;-61
2023/04/29 07:16:21;;;;;;;3.40;2.67;;;;;;;13.91;43.82;99813.97;5095881;28;20019;-62
2023/04/29 07:18:48;;;;;;;5.57;3.17;;;;;;;13.78;43.79;99800.81;5095863;28;20024;-63
2023/04/29 07:21:13;;;;;;;3.67;2.97;;;;;;;15.18;41.68;99820.53;5096063;28;20119;-62
2023/04/29 07:23:39;;;;;;;4.78;3.05;;;;;;;15.52;40.30;99813.59;5095630;28;20127;-61
2023/04/29 07:26:12;;;;;;;6.07;3.25;;;;;;;15.23;41.47;99825.50;5095605;28;20102;-62
2023/04/29 07:28:38;;;;;;;3.30;2.70;;;;;;;15.53;39.95;99825.22;5095848;28;20039;-61
2023/04/29 07:31:05;;;;;;;3.75;2.70;;;;;;;15.70;39.22;99805.44;5095590;28;20073;-61
2023/04/29 07:33:30;;;;;;;6.47;3.08;;;;;;;16.03;39.16;99832.69;5095524;28;20111;-62
2023/04/29 07:35:56;;;;;;;3.30;3.00;;;;;;;15.80;38.99;99840.44;5077843;28;20038;-61
2023/04/29 07:38:22;;;;;;;3.53;2.85;;;;;;;15.59;39.75;99844.34;5095374;28;20210;-62
2023/04/29 07:40:49;;;;;;;3.50;2.92;;;;;;;15.29;40.53;99832.97;5095664;28;20115;-62
2023/04/29 07:43:14;;;;;;;4.63;3.25;;;;;;;14.88;40.88;99840.63;5095750;28;20036;-61
2023/04/29 07:45:40;;;;;;;3.22;2.92;;;;;;;15.00;41.35;99838.56;5095433;28;20115;-61
2023/04/29 07:48:06;;;;;;;14.95;3.83;;;;;;;14.85;41.56;99840.94;5095184;28;20028;-63
2023/04/29 07:50:35;;;;;;;4.22;2.67;;;;;;;14.56;42.40;99839.22;5095329;28;20131;-62
2023/04/29 07:53:02;;;;;;;3.83;3.08;;;;;;;14.41;42.72;99837.00;5094970;28;20039;-62
2023/04/29 07:55:30;;;;;;;3.67;3.22;;;;;;;15.85;41.01;99848.91;5077834;28;20112;-61
2023/04/29 07:57:57;;;;;;;6.53;3.03;;;;;;;17.28;37.48;99850.25;5095181;28;20070;-62
2023/04/29 08:00:23;;;;;;;3.08;2.70;;;;;;;17.63;35.97;99853.69;5095133;28;20038;-62
2023/04/29 08:02:53;;;;;;;2.88;2.53;;;;;;;17.22;36.86;99853.63;5094121;28;20028;-61
2023/04/29 08:05:20;;;;;;;6.00;2.50;;;;;;;17.62;34.70;99835.75;5095273;28;20067;-61
2023/04/29 08:07:47;;;;;;;3.97;2.20;;;;;;;18.21;34.68;99863.63;5095099;28;20039;-61
2023/04/29 08:10:14;;;;;;;3.13;2.22;;;;;;;18.66;32.95;99850.41;5095013;28;20032;-62
2023/04/29 08:12:40;;;;;;;2.55;2.30;;;;;;;18.28;33.42;99871.88;5094912;28;20821;-62
2023/04/29 08:15:06;;;;;;;2.70;2.50;;;;;;;17.92;34.29;99873.09;5094995;28;20429;-63
2023/04/29 08:17:32;;;;;;;2.50;2.30;;;;;;;17.21;34.43;99865.47;5094690;28;20035;-62
2023/04/29 08:19:57;;;;;;;2.95;2.20;;;;;;;16.15;36.15;99878.34;5094710;28;20366;-62
2023/04/29 08:22:23;;;;;;;3.65;2.30;;;;;;;15.81;38.41;99879.09;5094712;28;20382;-62
2023/04/29 08:24:49;;;;;;;7.10;2.80;;;;;;;16.21;37.74;99875.00;5094826;28;20097;-63
2023/04/29 08:27:15;;;;;;;4.05;2.60;;;;;;;16.29;36.49;99876.91;5094468;28;20039;-62
2023/04/29 08:29:41;;;;;;;6.90;5.68;;;;;;;16.09;37.23;99881.69;5094312;28;20582;-61
2023/04/29 08:32:07;;;;;;;3.95;2.70;;;;;;;15.63;37.97;99891.59;5094552;28;20024;-61
2023/04/29 08:34:35;;;;;;;11.25;2.60;;;;;;;15.55;38.64;99891.53;5094305;28;20035;-61
2023/04/29 08:37:01;;;;;;;3.20;2.22;;;;;;;15.39;38.35;99886.84;5094352;28;20453;-62
2023/04/29 08:39:31;;;;;;;5.60;2.60;;;;;;;15.28;37.88;99874.41;5094186;28;20031;-61
2023/04/29 08:41:58;;;;;;;5.30;2.50;;;;;;;14.99;38.60;99882.69;5094079;28;20048;-62
2023/04/29 08:44:26;;;;;;;2.92;1.92;;;;;;;14.55;39.04;99881.47;5094346;28;20043;-61
2023/04/29 08:46:53;;;;;;;3.60;2.03;;;;;;;13.94;39.77;99875.56;5094040;28;20386;-61
2023/04/29 08:49:18;;;;;;;2.10;1.90;;;;;;;13.44;40.66;99880.16;5094220;28;20085;-61
2023/04/29 08:51:46;;;;;;;3.83;2.00;;;;;;;13.31;41.22;99871.47;5094214;28;20024;-61
2023/04/29 08:54:12;;;;;;;4.68;2.15;;;;;;;13.40;40.75;99872.47;5094180;28;20042;-61
2023/04/29 08:56:38;;;;;;;3.45;1.90;;;;;;;13.56;41.24;99880.84;5093823;28;20032;-63
2023/04/29 08:59:08;;;;;;;2.67;1.90;;;;;;;13.72;39.27;99884.78;5093824;28;20035;-63
2023/04/29 09:01:37;;;;;;;3.53;1.70;;;;;;;13.90;39.37;99896.53;5093970;28;20447;-61
2023/04/29 09:04:37;;;;;;;5.28;2.00;;;;;;;14.06;38.84;99893.25;5093851;28;20024;-61
2023/04/29 09:07:04;;;;;;;3.55;2.20;;;;;;;13.88;38.61;99898.53;5093734;28;20060;-62
2023/04/29 09:09:32;;;;;;;2.70;1.77;;;;;;;13.89;38.97;99902.06;5093598;28;20359;-61
2023/04/29 09:11:57;;;;;;;5.03;2.20;;;;;;;13.67;39.00;99895.13;5093786;28;20127;-61
2023/04/29 09:14:24;;;;;;;4.00;2.30;;;;;;;13.57;39.85;99893.31;5093401;28;20056;-63
2023/04/29 09:16:50;;;;;;;36.45;5.22;;;;;;;13.81;40.16;99893.84;5093706;28;20482;-62
2023/04/29 09:19:48;;;;;;;7.05;2.55;;;;;;;14.54;38.92;99900.50;5093481;28;20032;-62
2023/04/29 09:22:14;;;;;;;3.13;2.15;;;;;;;14.90;37.19;99898.78;5038550;28;20893;-62
2023/04/29 09:24:39;;;;;;;3.22;1.90;;;;;;;15.38;35.22;99900.47;5093196;28;20028;-63
2023/04/29 09:27:05;;;;;;;3.03;1.77;;;;;;;15.96;34.20;99903.72;5075556;28;20028;-63
2023/04/29 09:29:31;;;;;;;3.47;1.80;;;;;;;16.47;33.50;99911.97;5093577;28;20079;-62
2023/04/29 09:31:57;;;;;;;5.03;2.30;;;;;;;16.85;32.76;99896.28;5093406;28;20434;-61
2023/04/29 09:34:39;;;;;;;7.13;2.00;;;;;;;17.01;33.21;99906.34;5093670;28;20063;-62
2023/04/29 09:37:23;;;;;;;4.38;2.08;;;;;;;16.57;33.37;99909.16;5093439;28;20054;-61
2023/04/29 09:39:49;;;;;;;6.07;2.53;;;;;;;15.84;33.47;99903.91;5092772;28;20032;-62
2023/04/29 09:42:15;;;;;;;3.88;2.05;;;;;;;15.34;34.41;99916.97;5093243;28;20112;-61
2023/04/29 09:44:41;;;;;;;4.40;2.33;;;;;;;14.81;35.57;99915.84;5093063;28;20161;-62
2023/04/29 09:47:09;;;;;;;2.97;2.40;;;;;;;14.38;36.75;99920.81;5093144;28;20124;-62
2023/04/29 09:49:44;;;;;;;6.47;2.28;;;;;;;14.13;37.73;99922.31;5092959;28;20039;-62
2023/04/29 09:52:12;;;;;;;6.40;1.83;;;;;;;14.19;36.84;99921.72;5093402;28;20032;-61
2023/04/29 09:54:39;;;;;;;5.25;1.90;;;;;;;14.18;35.86;99928.94;5092934;28;20057;-62
2023/04/29 09:57:07;;;;;;;6.53;2.08;;;;;;;14.36;37.02;99933.56;5092411;28;20035;-63
2023/04/29 09:59:42;;;;;;;3.90;2.00;;;;;;;14.59;36.20;99931.38;5092572;28;20399;-62
2023/04/29 10:02:19;;;;;;;4.72;1.73;;;;;;;14.64;36.01;99947.09;5093098;28;20024;-62
2023/04/29 10:04:55;;;;;;;3.50;2.20;;;;;;;14.57;35.46;99940.59;5092903;28;20066;-62
2023/04/29 10:07:21;;;;;;;2.95;2.33;;;;;;;14.14;35.87;99932.91;5093086;28;20047;-61
2023/04/29 10:09:47;;;;;;;3.55;2.05;;;;;;;13.90;35.77;99936.91;5092940;28;20032;-63
2023/04/29 10:12:19;;;;;;;3.17;2.22;;;;;;;13.99;35.74;99937.06;5092869;28;20058;-62
2023/04/29 10:15:03;;;;;;;2.92;1.92;;;;;;;14.62;35.82;99932.91;5092405;28;20169;-63
2023/04/29 10:17:45;;;;;;;3.05;2.10;;;;;;;15.18;33.40;99930.25;5092712;28;20067;-62
2023/04/29 10:20:22;;;;;;;5.90;2.10;;;;;;;15.55;32.64;99940.09;5092931;28;20438;-62
2023/04/29 10:22:49;;;;;;;4.38;2.03;;;;;;;15.70;32.09;99937.72;5092683;28;20060;-61
2023/04/29 10:25:17;;;;;;;3.00;2.03;;;;;;;15.87;32.13;99938.69;5059631;28;20036;-62
2023/04/29 10:27:43;;;;;;;3.20;1.90;;;;;;;16.01;31.68;99944.59;5096902;28;20020;-61
2023/04/29 10:30:18;;;;;;;3.65;1.90;;;;;;;16.15;31.16;99943.19;5096773;28;20050;-61
2023/04/29 10:32:46;;;;;;;2.72;1.75;;;;;;;16.01;30.26;99952.69;5096830;28;20120;-62
2023/04/29 10:35:13;;;;;;;3.58;1.92;;;;;;;15.75;30.20;99939.94;5096477;28;20059;-63
2023/04/29 10:37:41;;;;;;;3.72;1.98;;;;;;;15.42;31.25;99948.56;5096624;28;20039;-61
2023/04/29 10:40:14;;;;;;;2.67;1.60;;;;;;;15.07;31.42;99924.09;5096704;28;20478;-63
2023/04/29 10:42:48;;;;;;;5.70;2.20;;;;;;;15.07;31.56;99969.94;5096690;28;20115;-62
2023/04/29 10:45:34;;;;;;;3.28;2.38;;;;;;;15.02;32.12;99958.75;5096548;28;20036;-62
2023/04/29 10:48:07;;;;;;;2.00;1.80;;;;;;;14.86;32.20;99969.31;5096478;28;20036;-61
2023/04/29 10:50:36;;;;;;;2.42;2.00;;;;;;;14.83;31.84;99975.88;5096446;28;20070;-63
2023/04/29 10:53:03;;;;;;;3.55;2.15;;;;;;;14.85;31.92;99981.09;5096191;28;20036;-62
2023/04/29 10:55:30;;;;;;;2.92;1.90;;;;;;;14.96;31.91;99974.66;5096333;28;20034;-63
2023/04/29 10:57:56;;;;;;;3.13;1.80;;;;;;;15.07;32.08;99952.88;5096726;28;20046;-63
2023/04/29 11:00:26;;;;;;;5.97;2.00;;;;;;;15.24;31.36;99948.56;5096204;28;20032;-62
2023/04/29 11:03:00;;;;;;;4.85;1.70;;;;;;;15.39;30.94;99967.75;5096216;28;20035;-63
2023/04/29 11:05:33;;;;;;;6.82;2.42;;;;;;;15.30;31.30;99972.22;5096494;28;20028;-62
2023/04/29 11:08:22;;;;;;;5.28;2.10;;;;;;;15.18;31.99;99979.66;5096605;28;20047;-62
2023/04/29 11:10:52;;;;;;;6.07;2.25;;;;;;;15.08;31.36;99986.97;5095840;28;20024;-61
2023/04/29 11:13:21;;;;;;;3.33;2.03;;;;;;;14.89;31.50;99947.44;5095737;28;20032;-61
2023/04/29 11:15:47;;;;;;;3.55;2.20;;;;;;;15.18;31.66;99989.59;5095949;28;20062;-63
2023/04/29 11:18:13;;;;;;;4.68;2.10;;;;;;;15.17;30.91;99985.19;5095868;28;20027;-62
2023/04/29 11:21:07;;;;;;;4.35;2.38;;;;;;;15.27;31.61;99991.41;5096001;28;20032;-63
2023/04/29 11:23:37;;;;;;;3.97;2.00;;;;;;;15.13;30.89;99981.97;5095648;28;20031;-62
2023/04/29 11:26:03;;;;;;;6.72;1.88;;;;;;;14.98;30.49;99970.84;5095790;28;20032;-62
2023/04/29 11:28:31;;;;;;;2.50;2.05;;;;;;;15.20;30.94;99990.31;5095889;28;20240;-62
2023/04/29 11:30:57;;;;;;;2.88;1.85;;;;;;;15.20;31.51;99984.91;5095858;28;20032;-62
2023/04/29 11:33:24;;;;;;;5.28;2.28;;;;;;;15.44;31.07;99997.84;5095752;28;20097;-62
2023/04/29 11:35:50;;;;;;;3.55;1.80;;;;;;;15.68;29.67;99992.88;5095305;28;20068;-62
2023/04/29 11:38:16;;;;;;;3.47;1.73;;;;;;;15.71;29.47;99995.25;5095369;28;20039;-61
2023/04/29 11:40:50;;;;;;;3.42;1.80;;;;;;;15.71;29.49;99985.28;5095379;28;20039;-61